createdAt,value
2017-02-19T00:00:45.896Z,0
2017-02-19T00:01:45.958Z,0
2017-02-19T00:02:45.450Z,0
2017-02-19T00:03:45.487Z,0
2017-02-19T00:04:45.914Z,0
2017-02-19T00:05:45.892Z,0
2017-02-19T00:06:45.930Z,0
2017-02-19T00:07:45.095Z,0
2017-02-19T00:08:45.937Z,0
2017-02-19T00:09:45.908Z,0
2017-02-19T00:10:45.911Z,0
2017-02-19T00:11:45.814Z,0
2017-02-19T00:12:45.904Z,0
2017-02-19T00:13:45.587Z,0
2017-02-19T00:14:45.595Z,0
2017-02-19T00:15:45.928Z,0
2017-02-19T00:16:46.110Z,0
2017-02-19T00:17:45.986Z,0
2017-02-19T00:18:45.691Z,0
2017-02-19T00:19:45.964Z,0
2017-02-19T00:20:45.951Z,0
2017-02-19T00:21:45.977Z,0
2017-02-19T00:22:46.008Z,0
2017-02-19T00:23:45.679Z,0
2017-02-19T00:24:45.598Z,0
2017-02-19T00:25:45.997Z,0
2017-02-19T00:26:46.019Z,0
2017-02-19T00:27:46.311Z,0
2017-02-19T00:28:46.066Z,0
2017-02-19T00:29:46.064Z,0
2017-02-19T00:30:46.069Z,0
2017-02-19T00:31:46.046Z,0
2017-02-19T00:32:46.075Z,0
2017-02-19T00:33:45.689Z,0
2017-02-19T00:34:46.098Z,0
2017-02-19T00:35:45.645Z,0
2017-02-19T00:36:46.046Z,0
2017-02-19T00:37:45.769Z,0
2017-02-19T00:38:46.072Z,0
2017-02-19T00:39:45.826Z,0
2017-02-19T00:40:46.477Z,0
2017-02-19T00:41:46.159Z,0
2017-02-19T00:42:46.092Z,0
2017-02-19T00:43:45.701Z,0
2017-02-19T00:44:45.322Z,0
2017-02-19T00:45:46.103Z,0
2017-02-19T00:46:46.116Z,0
2017-02-19T00:47:46.129Z,0
2017-02-19T00:48:46.224Z,0
2017-02-19T00:49:46.202Z,0
2017-02-19T00:50:46.149Z,0
2017-02-19T00:51:46.143Z,0
2017-02-19T00:52:46.210Z,0
2017-02-19T00:53:46.149Z,0
2017-02-19T00:54:46.202Z,0
2017-02-19T00:55:46.227Z,0
2017-02-19T00:56:45.819Z,0
2017-02-19T00:57:46.176Z,0
2017-02-19T00:58:46.173Z,0
2017-02-19T00:59:46.232Z,0
2017-02-19T01:00:46.249Z,0
2017-02-19T01:01:46.270Z,0
2017-02-19T01:02:45.811Z,0
2017-02-19T01:03:46.216Z,0
2017-02-19T01:04:46.278Z,0
2017-02-19T01:05:46.227Z,0
2017-02-19T01:06:46.287Z,0
2017-02-19T01:07:46.226Z,0
2017-02-19T01:08:46.264Z,0
2017-02-19T01:09:46.302Z,0
2017-02-19T01:10:46.319Z,0
2017-02-19T01:11:46.257Z,0
2017-02-19T01:12:46.263Z,0
2017-02-19T01:13:46.265Z,0
2017-02-19T01:14:46.281Z,0
2017-02-19T01:15:45.498Z,0
2017-02-19T01:16:45.947Z,0
2017-02-19T01:17:46.333Z,0
2017-02-19T01:18:45.957Z,0
2017-02-19T01:19:45.912Z,0
2017-02-19T01:20:46.325Z,0
2017-02-19T01:21:45.972Z,0
2017-02-19T01:22:45.929Z,0
2017-02-19T01:23:46.326Z,0
2017-02-19T01:24:45.934Z,0
2017-02-19T01:25:46.339Z,0
2017-02-19T01:26:46.348Z,0
2017-02-19T01:27:46.409Z,0
2017-02-19T01:28:46.408Z,0
2017-02-19T01:29:46.369Z,0
2017-02-19T01:30:45.967Z,0
2017-02-19T01:31:46.423Z,0
2017-02-19T01:32:45.988Z,0
2017-02-19T01:33:46.379Z,0
2017-02-19T01:34:46.453Z,0
2017-02-19T01:35:45.997Z,0
2017-02-19T01:36:46.457Z,0
2017-02-19T01:37:46.423Z,0
2017-02-19T01:38:46.135Z,0
2017-02-19T01:39:46.534Z,0
2017-02-19T01:40:46.433Z,0
2017-02-19T01:41:46.478Z,0
2017-02-19T01:42:45.710Z,0
2017-02-19T01:43:46.490Z,0
2017-02-19T01:44:46.493Z,0
2017-02-19T01:45:46.065Z,0
2017-02-19T01:46:46.465Z,0
2017-02-19T01:47:46.476Z,0
2017-02-19T01:48:46.475Z,0
2017-02-19T01:49:46.112Z,0
2017-02-19T01:50:46.490Z,0
2017-02-19T01:51:45.767Z,0
2017-02-19T01:52:46.516Z,0
2017-02-19T01:53:46.659Z,0
2017-02-19T01:54:46.565Z,0
2017-02-19T01:55:46.558Z,0
2017-02-19T01:56:46.516Z,0
2017-02-19T01:57:46.187Z,0
2017-02-19T01:58:46.129Z,0
2017-02-19T01:59:46.213Z,0
2017-02-19T02:00:46.596Z,0
2017-02-19T02:01:46.177Z,0
2017-02-19T02:02:46.608Z,0
2017-02-19T02:03:46.619Z,0
2017-02-19T02:04:46.589Z,0
2017-02-19T02:05:46.591Z,0
2017-02-19T02:06:46.574Z,0
2017-02-19T02:07:46.190Z,0
2017-02-19T02:08:46.641Z,0
2017-02-19T02:09:46.613Z,0
2017-02-19T02:10:46.263Z,0
2017-02-19T02:11:46.676Z,0
2017-02-19T02:12:46.230Z,0
2017-02-19T02:13:47.474Z,0
2017-02-19T02:14:45.839Z,0
2017-02-19T02:15:46.249Z,0
2017-02-19T02:16:46.769Z,0
2017-02-19T02:17:46.663Z,0
2017-02-19T02:18:46.703Z,0
2017-02-19T02:19:46.698Z,0
2017-02-19T02:20:46.728Z,0
2017-02-19T02:21:46.281Z,0
2017-02-19T02:22:46.346Z,0
2017-02-19T02:23:46.355Z,0
2017-02-19T02:24:46.683Z,0
2017-02-19T02:25:46.700Z,0
2017-02-19T02:26:46.690Z,0
2017-02-19T02:27:46.759Z,0
2017-02-19T02:28:46.316Z,0
2017-02-19T02:29:46.756Z,0
2017-02-19T02:30:46.827Z,0
2017-02-19T02:31:46.386Z,0
2017-02-19T02:32:46.740Z,0
2017-02-19T02:33:46.794Z,0
2017-02-19T02:34:46.763Z,0
2017-02-19T02:35:46.416Z,0
2017-02-19T02:36:46.750Z,0
2017-02-19T02:37:46.769Z,0
2017-02-19T02:38:46.811Z,0
2017-02-19T02:39:46.868Z,0
2017-02-19T02:40:46.785Z,0
2017-02-19T02:41:46.878Z,0
2017-02-19T02:42:46.844Z,0
2017-02-19T02:43:46.452Z,0
2017-02-19T02:44:46.798Z,0
2017-02-19T02:45:46.520Z,0
2017-02-19T02:46:46.818Z,0
2017-02-19T02:47:46.479Z,0
2017-02-19T02:48:46.876Z,0
2017-02-19T02:49:46.824Z,0
2017-02-19T02:50:46.833Z,0
2017-02-19T02:51:46.887Z,0
2017-02-19T02:52:46.907Z,0
2017-02-19T02:53:46.908Z,0
2017-02-19T02:54:45.731Z,0
2017-02-19T02:55:46.860Z,0
2017-02-19T02:56:46.916Z,0
2017-02-19T02:57:46.920Z,0
2017-02-19T02:58:46.506Z,0
2017-02-19T02:59:46.917Z,0
2017-02-19T03:00:46.569Z,0
2017-02-19T03:01:46.566Z,0
2017-02-19T03:02:46.915Z,0
2017-02-19T03:03:46.911Z,0
2017-02-19T03:04:46.977Z,0
2017-02-19T03:05:46.194Z,0
2017-02-19T03:06:47.005Z,0
2017-02-19T03:07:46.550Z,0
2017-02-19T03:08:46.543Z,0
2017-02-19T03:09:47.002Z,0
2017-02-19T03:10:46.952Z,0
2017-02-19T03:11:46.972Z,0
2017-02-19T03:12:46.612Z,0
2017-02-19T03:13:46.338Z,0
2017-02-19T03:14:47.037Z,0
2017-02-19T03:15:47.008Z,0
2017-02-19T03:16:46.696Z,0
2017-02-19T03:17:47.046Z,0
2017-02-19T03:18:47.001Z,0
2017-02-19T03:19:46.678Z,0
2017-02-19T03:20:47.055Z,0
2017-02-19T03:21:46.791Z,0
2017-02-19T03:22:46.703Z,0
2017-02-19T03:23:46.683Z,0
2017-02-19T03:24:47.040Z,0
2017-02-19T03:25:46.655Z,0
2017-02-19T03:26:47.045Z,0
2017-02-19T03:27:47.152Z,0
2017-02-19T03:28:46.675Z,0
2017-02-19T03:29:47.069Z,0
2017-02-19T03:30:46.729Z,0
2017-02-19T03:31:47.147Z,0
2017-02-19T03:32:47.177Z,0
2017-02-19T03:33:47.082Z,0
2017-02-19T03:34:47.113Z,0
2017-02-19T03:35:47.107Z,0
2017-02-19T03:36:47.205Z,0
2017-02-19T03:37:47.114Z,0
2017-02-19T03:38:47.138Z,0
2017-02-19T03:39:47.875Z,0
2017-02-19T03:40:46.799Z,0
2017-02-19T03:41:47.151Z,0
2017-02-19T03:42:47.205Z,0
2017-02-19T03:43:47.155Z,0
2017-02-19T03:44:46.757Z,0
2017-02-19T03:45:47.364Z,0
2017-02-19T03:46:47.065Z,0
2017-02-19T03:47:47.167Z,0
2017-02-19T03:48:47.249Z,0
2017-02-19T03:49:46.783Z,0
2017-02-19T03:50:46.804Z,0
2017-02-19T03:51:47.203Z,0
2017-02-19T03:52:47.251Z,0
2017-02-19T03:53:47.208Z,0
2017-02-19T03:54:47.271Z,0
2017-02-19T03:55:47.274Z,0
2017-02-19T03:56:47.268Z,0
2017-02-19T03:57:47.244Z,0
2017-02-19T03:58:47.250Z,0
2017-02-19T03:59:46.962Z,0
2017-02-19T04:00:47.262Z,0
2017-02-19T04:01:46.512Z,0
2017-02-19T04:02:47.310Z,0
2017-02-19T04:03:46.875Z,0
2017-02-19T04:04:46.975Z,0
2017-02-19T04:05:47.332Z,0
2017-02-19T04:06:47.290Z,0
2017-02-19T04:07:47.287Z,0
2017-02-19T04:08:46.950Z,0
2017-02-19T04:09:46.922Z,0
2017-02-19T04:10:47.315Z,0
2017-02-19T04:11:46.967Z,0
2017-02-19T04:12:47.323Z,0
2017-02-19T04:14:01.811Z,0
2017-02-19T04:14:47.549Z,0
2017-02-19T04:15:47.051Z,0
2017-02-19T04:16:47.397Z,0
2017-02-19T04:17:47.036Z,0
2017-02-19T04:18:47.356Z,0
2017-02-19T04:19:47.075Z,0
2017-02-19T04:20:46.619Z,0
2017-02-19T04:21:47.040Z,0
2017-02-19T04:22:47.375Z,0
2017-02-19T04:23:46.988Z,0
2017-02-19T04:24:47.390Z,0
2017-02-19T04:25:47.407Z,0
2017-02-19T04:26:47.553Z,0
2017-02-19T04:27:47.407Z,0
2017-02-19T04:28:47.467Z,0
2017-02-19T04:29:47.443Z,0
2017-02-19T04:30:47.052Z,0
2017-02-19T04:31:47.148Z,0
2017-02-19T04:32:47.092Z,0
2017-02-19T04:33:47.049Z,0
2017-02-19T04:34:46.754Z,0
2017-02-19T04:35:47.454Z,0
2017-02-19T04:36:47.062Z,0
2017-02-19T04:37:47.065Z,0
2017-02-19T04:38:47.170Z,0
2017-02-19T04:39:47.087Z,0
2017-02-19T04:40:47.133Z,0
2017-02-19T04:41:47.156Z,0
2017-02-19T04:42:47.496Z,0
2017-02-19T04:43:47.156Z,0
2017-02-19T04:44:47.518Z,0
2017-02-19T04:45:46.322Z,0
2017-02-19T04:46:47.187Z,0
2017-02-19T04:47:47.126Z,0
2017-02-19T04:48:47.155Z,0
2017-02-19T04:49:47.186Z,0
2017-02-19T04:50:47.564Z,0
2017-02-19T04:51:47.211Z,0
2017-02-19T04:52:47.601Z,0
2017-02-19T04:53:47.563Z,0
2017-02-19T04:54:47.167Z,0
2017-02-19T04:55:47.590Z,0
2017-02-19T04:56:47.198Z,0
2017-02-19T04:57:47.194Z,0
2017-02-19T04:58:46.840Z,0
2017-02-19T04:59:47.200Z,0
2017-02-19T05:00:47.205Z,0
2017-02-19T05:01:47.258Z,0
2017-02-19T05:02:46.477Z,0
2017-02-19T05:03:46.863Z,0
2017-02-19T05:04:47.628Z,0
2017-02-19T05:05:47.277Z,0
2017-02-19T05:06:47.237Z,0
2017-02-19T05:07:47.243Z,0
2017-02-19T05:08:47.642Z,0
2017-02-19T05:09:47.647Z,0
2017-02-19T05:10:47.708Z,0
2017-02-19T05:11:46.929Z,0
2017-02-19T05:12:47.740Z,0
2017-02-19T05:13:47.729Z,0
2017-02-19T05:14:47.762Z,0
2017-02-19T05:15:47.301Z,0
2017-02-19T05:16:47.796Z,0
2017-02-19T05:17:47.348Z,0
2017-02-19T05:18:47.708Z,0
2017-02-19T05:19:47.764Z,0
2017-02-19T05:20:47.320Z,0
2017-02-19T05:21:48.022Z,0
2017-02-19T05:22:47.825Z,0
2017-02-19T05:23:47.348Z,0
2017-02-19T05:24:47.756Z,0
2017-02-19T05:25:47.810Z,0
2017-02-19T05:26:47.406Z,0
2017-02-19T05:27:47.765Z,0
2017-02-19T05:28:47.466Z,0
2017-02-19T05:29:47.770Z,0
2017-02-19T05:30:47.445Z,0
2017-02-19T05:31:47.828Z,0
2017-02-19T05:32:47.084Z,0
2017-02-19T05:33:47.800Z,0
2017-02-19T05:34:47.814Z,0
2017-02-19T05:35:47.816Z,0
2017-02-19T05:36:47.876Z,0
2017-02-19T05:37:47.865Z,0
2017-02-19T05:38:47.882Z,0
2017-02-19T05:39:48.232Z,0
2017-02-19T05:40:47.436Z,0
2017-02-19T05:41:47.888Z,0
2017-02-19T05:42:47.889Z,0
2017-02-19T05:43:47.908Z,0
2017-02-19T05:44:47.126Z,0
2017-02-19T05:45:47.938Z,0
2017-02-19T05:46:47.521Z,0
2017-02-19T05:47:47.923Z,0
2017-02-19T05:48:47.494Z,0
2017-02-19T05:49:47.881Z,0
2017-02-19T05:50:47.942Z,0
2017-02-19T05:51:47.947Z,0
2017-02-19T05:52:47.552Z,0
2017-02-19T05:53:47.535Z,0
2017-02-19T05:54:47.579Z,0
2017-02-19T05:55:47.976Z,0
2017-02-19T05:56:47.973Z,0
2017-02-19T05:57:47.949Z,0
2017-02-19T05:58:47.640Z,0
2017-02-19T05:59:48.002Z,0
2017-02-19T06:00:47.153Z,0
2017-02-19T06:01:47.954Z,0
2017-02-19T06:02:48.019Z,0
2017-02-19T06:03:47.968Z,0
2017-02-19T06:04:47.971Z,0
2017-02-19T06:05:48.084Z,0
2017-02-19T06:06:47.689Z,0
2017-02-19T06:07:47.606Z,0
2017-02-19T06:08:47.598Z,0
2017-02-19T06:09:48.058Z,0
2017-02-19T06:10:47.617Z,0
2017-02-19T06:11:48.009Z,4
2017-02-19T06:12:48.022Z,4
2017-02-19T06:13:48.075Z,0
2017-02-19T06:14:47.731Z,0
2017-02-19T06:15:47.648Z,0
2017-02-19T06:16:48.117Z,4
2017-02-19T06:17:47.720Z,4
2017-02-19T06:18:47.719Z,4
2017-02-19T06:19:47.660Z,4
2017-02-19T06:20:48.127Z,4
2017-02-19T06:21:47.837Z,4
2017-02-19T06:22:48.089Z,4
2017-02-19T06:23:47.707Z,8
2017-02-19T06:24:48.083Z,8
2017-02-19T06:25:48.140Z,8
2017-02-19T06:26:48.209Z,8
2017-02-19T06:27:48.160Z,12
2017-02-19T06:28:47.779Z,12
2017-02-19T06:29:48.119Z,12
2017-02-19T06:30:48.119Z,16
2017-02-19T06:31:47.750Z,20
2017-02-19T06:32:48.143Z,24
2017-02-19T06:33:48.141Z,24
2017-02-19T06:34:48.157Z,24
2017-02-19T06:35:48.214Z,28
2017-02-19T06:36:48.163Z,32
2017-02-19T06:37:48.166Z,32
2017-02-19T06:38:48.174Z,36
2017-02-19T06:39:48.228Z,40
2017-02-19T06:40:48.194Z,40
2017-02-19T06:41:48.250Z,44
2017-02-19T06:42:47.800Z,48
2017-02-19T06:43:48.251Z,48
2017-02-19T06:44:48.266Z,52
2017-02-19T06:45:48.206Z,56
2017-02-19T06:46:48.274Z,60
2017-02-19T06:47:48.225Z,72
2017-02-19T06:48:48.283Z,88
2017-02-19T06:49:48.290Z,96
2017-02-19T06:50:47.965Z,104
2017-02-19T06:51:48.293Z,108
2017-02-19T06:52:48.273Z,104
2017-02-19T06:53:48.281Z,108
2017-02-19T06:54:48.320Z,104
2017-02-19T06:55:48.291Z,104
2017-02-19T06:56:48.274Z,104
2017-02-19T06:57:48.281Z,104
2017-02-19T06:58:47.951Z,112
2017-02-19T06:59:48.639Z,116
2017-02-19T07:00:48.311Z,116
2017-02-19T07:01:48.361Z,112
2017-02-19T07:02:48.356Z,112
2017-02-19T07:03:47.914Z,116
2017-02-19T07:04:48.370Z,116
2017-02-19T07:05:48.037Z,120
2017-02-19T07:06:48.344Z,128
2017-02-19T07:07:47.944Z,136
2017-02-19T07:08:48.353Z,156
2017-02-19T07:09:48.559Z,160
2017-02-19T07:10:48.055Z,176
2017-02-19T07:11:47.965Z,196
2017-02-19T07:12:47.979Z,212
2017-02-19T07:13:48.050Z,224
2017-02-19T07:14:48.054Z,240
2017-02-19T07:15:48.394Z,260
2017-02-19T07:16:48.300Z,280
2017-02-19T07:17:48.502Z,296
2017-02-19T07:18:48.400Z,308
2017-02-19T07:19:48.421Z,316
2017-02-19T07:20:48.036Z,332
2017-02-19T07:21:48.442Z,340
2017-02-19T07:22:48.082Z,356
2017-02-19T07:23:47.651Z,392
2017-02-19T07:24:48.485Z,388
2017-02-19T07:25:48.448Z,408
2017-02-19T07:26:48.503Z,456
2017-02-19T07:27:48.518Z,504
2017-02-19T07:28:48.069Z,528
2017-02-19T07:29:48.777Z,548
2017-02-19T07:30:48.093Z,540
2017-02-19T07:31:48.605Z,524
2017-02-19T07:32:47.708Z,508
2017-02-19T07:33:48.104Z,504
2017-02-19T07:34:48.498Z,504
2017-02-19T07:35:48.522Z,480
2017-02-19T07:36:48.148Z,460
2017-02-19T07:37:48.516Z,444
2017-02-19T07:38:48.529Z,436
2017-02-19T07:39:47.744Z,440
2017-02-19T07:40:48.564Z,444
2017-02-19T07:41:48.563Z,464
2017-02-19T07:42:48.543Z,488
2017-02-19T07:43:48.204Z,528
2017-02-19T07:44:48.160Z,552
2017-02-19T07:45:48.573Z,552
2017-02-19T07:46:48.077Z,552
2017-02-19T07:47:48.574Z,556
2017-02-19T07:48:48.658Z,568
2017-02-19T07:49:48.214Z,620
2017-02-19T07:50:48.638Z,660
2017-02-19T07:51:48.598Z,724
2017-02-19T07:52:48.264Z,760
2017-02-19T07:53:48.669Z,792
2017-02-19T07:54:48.218Z,944
2017-02-19T07:55:48.230Z,1040
2017-02-19T07:56:48.643Z,1120
2017-02-19T07:57:48.582Z,1200
2017-02-19T07:58:48.745Z,1264
2017-02-19T07:59:48.316Z,1356
2017-02-19T08:00:48.709Z,1380
2017-02-19T08:01:47.876Z,1372
2017-02-19T08:02:47.930Z,1388
2017-02-19T08:03:48.670Z,1296
2017-02-19T08:04:48.727Z,1184
2017-02-19T08:05:48.804Z,1056
2017-02-19T08:06:48.754Z,1064
2017-02-19T08:07:48.307Z,1200
2017-02-19T08:08:48.700Z,1332
2017-02-19T08:09:48.307Z,1380
2017-02-19T08:10:48.724Z,1572
2017-02-19T08:11:48.373Z,1552
2017-02-19T08:12:48.724Z,1424
2017-02-19T08:13:48.795Z,1456
2017-02-19T08:14:48.734Z,1512
2017-02-19T08:15:48.740Z,1460
2017-02-19T08:16:48.913Z,1472
2017-02-19T08:17:48.767Z,1528
2017-02-19T08:18:48.468Z,1416
2017-02-19T08:19:48.853Z,1020
2017-02-19T08:20:48.798Z,896
2017-02-19T08:21:48.783Z,740
2017-02-19T08:22:49.127Z,640
2017-02-19T08:23:48.412Z,556
2017-02-19T08:24:48.857Z,500
2017-02-19T08:25:48.857Z,472
2017-02-19T08:26:48.427Z,452
2017-02-19T08:27:48.847Z,404
2017-02-19T08:28:48.434Z,380
2017-02-19T08:29:48.436Z,324
2017-02-19T08:30:48.498Z,304
2017-02-19T08:31:48.859Z,296
2017-02-19T08:32:48.922Z,288
2017-02-19T08:33:48.506Z,288
2017-02-19T08:34:48.529Z,292
2017-02-19T08:35:48.484Z,296
2017-02-19T08:36:48.932Z,300
2017-02-19T08:37:48.887Z,304
2017-02-19T08:38:48.984Z,308
2017-02-19T08:39:48.956Z,316
2017-02-19T08:40:48.110Z,316
2017-02-19T08:41:48.508Z,320
2017-02-19T08:42:48.531Z,316
2017-02-19T08:43:48.142Z,304
2017-02-19T08:44:48.979Z,308
2017-02-19T08:45:49.007Z,324
2017-02-19T08:46:48.927Z,324
2017-02-19T08:47:48.994Z,336
2017-02-19T08:48:48.999Z,352
2017-02-19T08:49:49.019Z,368
2017-02-19T08:50:48.613Z,380
2017-02-19T08:51:49.017Z,388
2017-02-19T08:52:49.028Z,376
2017-02-19T08:53:48.974Z,380
2017-02-19T08:54:48.981Z,396
2017-02-19T08:55:49.032Z,420
2017-02-19T08:56:48.986Z,440
2017-02-19T08:57:49.101Z,456
2017-02-19T08:58:49.083Z,476
2017-02-19T08:59:48.626Z,496
2017-02-19T09:00:49.080Z,524
2017-02-19T09:01:48.641Z,552
2017-02-19T09:02:48.956Z,572
2017-02-19T09:03:49.083Z,572
2017-02-19T09:04:48.698Z,584
2017-02-19T09:05:48.250Z,628
2017-02-19T09:06:49.067Z,700
2017-02-19T09:07:49.111Z,796
2017-02-19T09:08:49.126Z,916
2017-02-19T09:09:48.718Z,1008
2017-02-19T09:10:49.122Z,1196
2017-02-19T09:11:49.084Z,1464
2017-02-19T09:12:48.737Z,1888
2017-02-19T09:13:49.158Z,1004
2017-02-19T09:14:48.753Z,972
2017-02-19T09:15:49.163Z,756
2017-02-19T09:16:48.715Z,676
2017-02-19T09:17:49.160Z,616
2017-02-19T09:18:48.737Z,588
2017-02-19T09:19:49.124Z,576
2017-02-19T09:20:49.148Z,588
2017-02-19T09:21:49.214Z,624
2017-02-19T09:22:49.144Z,652
2017-02-19T09:23:49.214Z,664
2017-02-19T09:24:49.202Z,684
2017-02-19T09:25:48.768Z,700
2017-02-19T09:26:48.424Z,672
2017-02-19T09:27:48.819Z,632
2017-02-19T09:28:49.201Z,576
2017-02-19T09:29:48.442Z,552
2017-02-19T09:30:48.448Z,516
2017-02-19T09:31:49.197Z,472
2017-02-19T09:32:49.319Z,436
2017-02-19T09:33:49.211Z,408
2017-02-19T09:34:48.875Z,380
2017-02-19T09:35:49.225Z,348
2017-02-19T09:36:48.886Z,332
2017-02-19T09:37:48.937Z,328
2017-02-19T09:38:49.286Z,340
2017-02-19T09:39:49.298Z,364
2017-02-19T09:40:48.870Z,396
2017-02-19T09:41:49.766Z,404
2017-02-19T09:42:49.315Z,396
2017-02-19T09:43:49.333Z,400
2017-02-19T09:44:48.927Z,372
2017-02-19T09:45:49.291Z,336
2017-02-19T09:46:48.886Z,320
2017-02-19T09:47:49.414Z,332
2017-02-19T09:48:49.299Z,364
2017-02-19T09:49:49.308Z,368
2017-02-19T09:50:49.364Z,384
2017-02-19T09:51:49.370Z,424
2017-02-19T09:52:48.530Z,472
2017-02-19T09:53:49.433Z,528
2017-02-19T09:54:48.938Z,568
2017-02-19T09:55:49.341Z,568
2017-02-19T09:56:48.987Z,588
2017-02-19T09:57:49.351Z,612
2017-02-19T09:58:49.410Z,608
2017-02-19T09:59:49.414Z,572
2017-02-19T10:00:48.982Z,600
2017-02-19T10:01:49.038Z,624
2017-02-19T10:02:49.396Z,664
2017-02-19T10:03:48.987Z,672
2017-02-19T10:04:49.592Z,672
2017-02-19T10:05:49.392Z,680
2017-02-19T10:06:49.402Z,704
2017-02-19T10:07:49.072Z,868
2017-02-19T10:08:49.428Z,1016
2017-02-19T10:09:49.431Z,1004
2017-02-19T10:10:49.077Z,852
2017-02-19T10:11:49.430Z,684
2017-02-19T10:12:49.097Z,640
2017-02-19T10:13:49.603Z,644
2017-02-19T10:14:49.523Z,708
2017-02-19T10:15:49.525Z,812
2017-02-19T10:16:49.516Z,944
2017-02-19T10:17:49.518Z,1120
2017-02-19T10:18:49.676Z,1304
2017-02-19T10:19:49.579Z,1364
2017-02-19T10:20:49.480Z,1388
2017-02-19T10:21:49.493Z,1308
2017-02-19T10:22:49.554Z,1188
2017-02-19T10:23:48.756Z,1100
2017-02-19T10:24:49.567Z,1012
2017-02-19T10:25:49.532Z,960
2017-02-19T10:26:48.791Z,912
2017-02-19T10:27:49.521Z,936
2017-02-19T10:28:49.526Z,896
2017-02-19T10:29:49.538Z,880
2017-02-19T10:30:49.145Z,872
2017-02-19T10:31:49.560Z,880
2017-02-19T10:32:49.556Z,880
2017-02-19T10:33:49.668Z,912
2017-02-19T10:34:48.883Z,924
2017-02-19T10:35:49.570Z,960
2017-02-19T10:36:48.812Z,980
2017-02-19T10:37:49.587Z,1076
2017-02-19T10:38:49.592Z,1068
2017-02-19T10:39:49.659Z,1068
2017-02-19T10:40:49.615Z,1192
2017-02-19T10:41:49.718Z,1400
2017-02-19T10:42:49.665Z,1248
2017-02-19T10:44:04.098Z,1088
2017-02-19T10:44:49.628Z,1160
2017-02-19T10:45:49.639Z,1092
2017-02-19T10:46:49.691Z,1060
2017-02-19T10:47:49.700Z,1016
2017-02-19T10:48:49.298Z,968
2017-02-19T10:49:49.670Z,924
2017-02-19T10:50:49.330Z,840
2017-02-19T10:51:48.903Z,752
2017-02-19T10:52:49.742Z,692
2017-02-19T10:53:49.756Z,664
2017-02-19T10:54:49.733Z,648
2017-02-19T10:55:49.358Z,628
2017-02-19T10:56:49.742Z,644
2017-02-19T10:57:49.749Z,652
2017-02-19T10:58:49.372Z,676
2017-02-19T10:59:49.373Z,700
2017-02-19T11:00:49.760Z,704
2017-02-19T11:01:49.325Z,696
2017-02-19T11:02:49.793Z,672
2017-02-19T11:03:49.800Z,648
2017-02-19T11:04:49.351Z,600
2017-02-19T11:05:49.805Z,536
2017-02-19T11:06:49.447Z,488
2017-02-19T11:07:49.781Z,440
2017-02-19T11:08:49.863Z,392
2017-02-19T11:09:49.393Z,360
2017-02-19T11:10:49.778Z,332
2017-02-19T11:11:49.798Z,296
2017-02-19T11:12:49.836Z,288
2017-02-19T11:13:49.460Z,292
2017-02-19T11:14:49.802Z,304
2017-02-19T11:15:49.511Z,316
2017-02-19T11:16:49.815Z,308
2017-02-19T11:17:49.876Z,288
2017-02-19T11:18:49.829Z,272
2017-02-19T11:19:49.833Z,264
2017-02-19T11:20:49.984Z,260
2017-02-19T11:21:49.850Z,252
2017-02-19T11:22:49.851Z,232
2017-02-19T11:23:49.462Z,232
2017-02-19T11:24:49.464Z,232
2017-02-19T11:25:49.730Z,248
2017-02-19T11:26:49.492Z,268
2017-02-19T11:27:49.499Z,288
2017-02-19T11:28:49.184Z,296
2017-02-19T11:29:49.897Z,312
2017-02-19T11:30:49.901Z,316
2017-02-19T11:31:49.559Z,312
2017-02-19T11:32:49.674Z,308
2017-02-19T11:33:49.915Z,304
2017-02-19T11:34:49.919Z,272
2017-02-19T11:35:49.971Z,240
2017-02-19T11:36:49.982Z,220
2017-02-19T11:37:50.594Z,216
2017-02-19T11:38:50.011Z,216
2017-02-19T11:39:49.151Z,204
2017-02-19T11:40:49.813Z,196
2017-02-19T11:41:49.955Z,188
2017-02-19T11:42:50.016Z,192
2017-02-19T11:43:49.964Z,204
2017-02-19T11:44:49.649Z,228
2017-02-19T11:45:50.030Z,248
2017-02-19T11:46:50.043Z,256
2017-02-19T11:47:50.014Z,260
2017-02-19T11:48:50.004Z,248
2017-02-19T11:49:49.656Z,228
2017-02-19T11:50:50.016Z,200
2017-02-19T11:51:48.837Z,168
2017-02-19T11:52:50.015Z,172
2017-02-19T11:53:49.936Z,172
2017-02-19T11:54:50.045Z,176
2017-02-19T11:55:49.691Z,160
2017-02-19T11:56:49.660Z,144
2017-02-19T11:57:49.703Z,128
2017-02-19T11:58:49.664Z,116
2017-02-19T11:59:49.661Z,116
2017-02-19T12:00:50.128Z,128
2017-02-19T12:01:49.746Z,140
2017-02-19T12:02:50.002Z,164
2017-02-19T12:03:50.152Z,200
2017-02-19T12:04:50.086Z,216
2017-02-19T12:05:50.144Z,236
2017-02-19T12:06:49.753Z,228
2017-02-19T12:07:49.731Z,200
2017-02-19T12:08:50.171Z,176
2017-02-19T12:09:50.168Z,164
2017-02-19T12:10:49.382Z,172
2017-02-19T12:11:49.780Z,212
2017-02-19T12:12:50.150Z,280
2017-02-19T12:14:04.229Z,304
2017-02-19T12:14:49.811Z,324
2017-02-19T12:15:49.372Z,340
2017-02-19T12:16:50.169Z,364
2017-02-19T12:17:50.285Z,400
2017-02-19T12:18:49.781Z,392
2017-02-19T12:19:50.192Z,364
2017-02-19T12:20:49.789Z,284
2017-02-19T12:21:50.269Z,200
2017-02-19T12:22:49.846Z,184
2017-02-19T12:23:50.348Z,152
2017-02-19T12:24:50.262Z,152
2017-02-19T12:25:50.207Z,156
2017-02-19T12:26:49.423Z,156
2017-02-19T12:27:50.274Z,164
2017-02-19T12:28:50.294Z,176
2017-02-19T12:29:50.244Z,172
2017-02-19T12:30:50.286Z,172
2017-02-19T12:31:50.356Z,160
2017-02-19T12:32:50.275Z,152
2017-02-19T12:33:49.867Z,136
2017-02-19T12:34:50.290Z,124
2017-02-19T12:35:49.643Z,132
2017-02-19T12:36:49.973Z,160
2017-02-19T12:37:50.353Z,148
2017-02-19T12:38:50.590Z,144
2017-02-19T12:39:50.326Z,148
2017-02-19T12:40:50.303Z,156
2017-02-19T12:41:49.961Z,172
2017-02-19T12:42:49.959Z,176
2017-02-19T12:44:04.887Z,160
2017-02-19T12:44:49.939Z,148
2017-02-19T12:45:49.984Z,156
2017-02-19T12:46:50.342Z,148
2017-02-19T12:47:50.346Z,152
2017-02-19T12:48:50.403Z,148
2017-02-19T12:49:50.453Z,140
2017-02-19T12:50:49.973Z,136
2017-02-19T12:51:50.414Z,140
2017-02-19T12:52:50.371Z,144
2017-02-19T12:53:50.084Z,168
2017-02-19T12:54:50.025Z,204
2017-02-19T12:55:51.398Z,204
2017-02-19T12:56:50.435Z,204
2017-02-19T12:57:50.015Z,188
2017-02-19T12:58:50.016Z,172
2017-02-19T12:59:50.452Z,172
2017-02-19T13:00:50.462Z,196
2017-02-19T13:01:50.129Z,196
2017-02-19T13:02:50.438Z,176
2017-02-19T13:03:50.142Z,164
2017-02-19T13:04:50.430Z,160
2017-02-19T13:05:50.105Z,164
2017-02-19T13:06:50.515Z,176
2017-02-19T13:07:49.661Z,188
2017-02-19T13:08:50.518Z,200
2017-02-19T13:09:50.078Z,200
2017-02-19T13:10:50.472Z,196
2017-02-19T13:11:50.571Z,208
2017-02-19T13:12:50.539Z,224
2017-02-19T13:13:50.531Z,236
2017-02-19T13:14:50.503Z,240
2017-02-19T13:15:50.555Z,228
2017-02-19T13:16:50.556Z,188
2017-02-19T13:17:50.112Z,172
2017-02-19T13:18:50.572Z,180
2017-02-19T13:19:50.567Z,200
2017-02-19T13:20:50.638Z,188
2017-02-19T13:21:50.586Z,192
2017-02-19T13:22:50.601Z,196
2017-02-19T13:23:50.158Z,192
2017-02-19T13:24:50.602Z,180
2017-02-19T13:25:50.865Z,184
2017-02-19T13:26:50.164Z,180
2017-02-19T13:27:50.181Z,184
2017-02-19T13:28:50.644Z,188
2017-02-19T13:29:50.683Z,180
2017-02-19T13:30:50.577Z,176
2017-02-19T13:31:50.614Z,180
2017-02-19T13:32:50.585Z,176
2017-02-19T13:33:50.657Z,152
2017-02-19T13:34:50.965Z,136
2017-02-19T13:35:50.674Z,132
2017-02-19T13:36:50.233Z,128
2017-02-19T13:37:50.667Z,124
2017-02-19T13:38:50.618Z,116
2017-02-19T13:39:50.627Z,116
2017-02-19T13:40:50.703Z,124
2017-02-19T13:41:50.703Z,116
2017-02-19T13:42:50.692Z,116
2017-02-19T13:44:04.732Z,116
2017-02-19T13:44:50.704Z,120
2017-02-19T13:45:50.267Z,128
2017-02-19T13:46:50.340Z,144
2017-02-19T13:47:50.670Z,148
2017-02-19T13:48:50.725Z,164
2017-02-19T13:49:50.681Z,188
2017-02-19T13:50:50.396Z,168
2017-02-19T13:51:50.659Z,136
2017-02-19T13:52:50.762Z,136
2017-02-19T13:53:50.737Z,120
2017-02-19T13:54:50.709Z,108
2017-02-19T13:55:50.380Z,100
2017-02-19T13:56:50.781Z,92
2017-02-19T13:57:50.460Z,88
2017-02-19T13:58:50.351Z,84
2017-02-19T13:59:50.735Z,80
2017-02-19T14:00:50.363Z,92
2017-02-19T14:01:50.404Z,88
2017-02-19T14:02:50.770Z,84
2017-02-19T14:03:50.769Z,84
2017-02-19T14:04:50.816Z,80
2017-02-19T14:05:50.774Z,88
2017-02-19T14:06:50.446Z,92
2017-02-19T14:07:49.999Z,92
2017-02-19T14:08:50.787Z,96
2017-02-19T14:09:50.866Z,104
2017-02-19T14:10:50.845Z,100
2017-02-19T14:11:50.407Z,108
2017-02-19T14:12:50.820Z,120